aviador You're here:

OMAL Decoded Metar

AL AIN in UNITED ARAB EMIRATES
Report Time2018-01-18 09:00:00
UTC Time2018-01-18 09:57:46
Flight Rules vfr VFR
Wind290° at 06 kt
W.Decomp.*RWY 01: 0.9 kt HW 5.9 kt LCW
W.Rank290° ranks 8
Current wind is below 290° avg. (7.9)
Visibility9999 m
Phenomena:N/A
Clouds:Few 040 Hf
Expected CloudBase > 4,800 ft AGL from Temp-Dew spread
CeilingNone
Temp20°C (ISA +7)
Dew Point08°C (46% RH)
AAT17.4°C
QNH1017 hPa
Density Alt1,670 ft
Elevation869 ft
Report Wrong Elevation
Raw Report
METAR OMAL 180900Z 29006KT 240V330 9999 FEW040 20/08 Q1017 NOSIG=

Extra information for OMAL:More info

Metar Taf Metar & Taf Last 4 Metars F.Rules Stats Wind Profile Meteogram Temp Stats Airport Information Weather charts Add Link Nearby VenuesMetar ALERT Operation Metar Decoded Social comments